sensor_id;sensor_type;location;lat;lon;timestamp;P1;durP1;ratioP1;P2;durP2;ratioP2
5662;SDS011;2854;42.692;23.364;2022-07-06T00:01:19;11.07;;;8.10;;
5662;SDS011;2854;42.692;23.364;2022-07-06T00:03:45;9.93;;;7.50;;
5662;SDS011;2854;42.692;23.364;2022-07-06T00:06:10;12.50;;;7.67;;
5662;SDS011;2854;42.692;23.364;2022-07-06T00:08:35;10.27;;;7.50;;
5662;SDS011;2854;42.692;23.364;2022-07-06T00:11:01;9.17;;;6.83;;
5662;SDS011;2854;42.692;23.364;2022-07-06T00:13:26;11.77;;;7.63;;
5662;SDS011;2854;42.692;23.364;2022-07-06T00:15:52;11.63;;;7.80;;
5662;SDS011;2854;42.692;23.364;2022-07-06T00:18:17;9.20;;;6.97;;
5662;SDS011;2854;42.692;23.364;2022-07-06T00:20:43;13.73;;;7.50;;
5662;SDS011;2854;42.692;23.364;2022-07-06T00:23:08;8.90;;;6.73;;
5662;SDS011;2854;42.692;23.364;2022-07-06T00:25:33;9.57;;;6.87;;
5662;SDS011;2854;42.692;23.364;2022-07-06T00:27:59;13.50;;;7.10;;
5662;SDS011;2854;42.692;23.364;2022-07-06T00:30:24;9.27;;;7.40;;
5662;SDS011;2854;42.692;23.364;2022-07-06T00:32:49;11.77;;;7.23;;
5662;SDS011;2854;42.692;23.364;2022-07-06T00:35:15;12.33;;;7.67;;
5662;SDS011;2854;42.692;23.364;2022-07-06T00:37:40;9.53;;;7.53;;
5662;SDS011;2854;42.692;23.364;2022-07-06T00:40:05;9.53;;;7.53;;
5662;SDS011;2854;42.692;23.364;2022-07-06T00:42:38;11.83;;;8.00;;
5662;SDS011;2854;42.692;23.364;2022-07-06T00:45:03;9.27;;;7.20;;
5662;SDS011;2854;42.692;23.364;2022-07-06T00:47:29;11.30;;;7.80;;
5662;SDS011;2854;42.692;23.364;2022-07-06T00:49:54;13.97;;;7.70;;
5662;SDS011;2854;42.692;23.364;2022-07-06T00:52:38;11.20;;;7.90;;
5662;SDS011;2854;42.692;23.364;2022-07-06T00:55:04;9.87;;;7.80;;
5662;SDS011;2854;42.692;23.364;2022-07-06T00:57:29;10.30;;;6.83;;
5662;SDS011;2854;42.692;23.364;2022-07-06T00:59:54;12.40;;;8.70;;
5662;SDS011;2854;42.692;23.364;2022-07-06T01:02:20;11.90;;;8.70;;
5662;SDS011;2854;42.692;23.364;2022-07-06T01:04:47;11.40;;;8.73;;
5662;SDS011;2854;42.692;23.364;2022-07-06T01:07:12;11.00;;;8.80;;
5662;SDS011;2854;42.692;23.364;2022-07-06T01:09:38;13.47;;;8.87;;
5662;SDS011;2854;42.692;23.364;2022-07-06T01:12:03;11.27;;;8.67;;
5662;SDS011;2854;42.692;23.364;2022-07-06T01:14:29;10.60;;;8.23;;
5662;SDS011;2854;42.692;23.364;2022-07-06T01:16:55;12.30;;;9.37;;
5662;SDS011;2854;42.692;23.364;2022-07-06T01:19:20;12.73;;;9.10;;
5662;SDS011;2854;42.692;23.364;2022-07-06T01:21:45;13.00;;;8.70;;
5662;SDS011;2854;42.692;23.364;2022-07-06T01:24:11;14.23;;;10.13;;
5662;SDS011;2854;42.692;23.364;2022-07-06T01:26:36;15.70;;;10.43;;
5662;SDS011;2854;42.692;23.364;2022-07-06T01:29:01;20.83;;;10.80;;
5662;SDS011;2854;42.692;23.364;2022-07-06T01:31:27;15.70;;;11.30;;
5662;SDS011;2854;42.692;23.364;2022-07-06T01:33:53;17.17;;;10.80;;
5662;SDS011;2854;42.692;23.364;2022-07-06T01:36:19;14.80;;;9.30;;
5662;SDS011;2854;42.692;23.364;2022-07-06T01:41:09;17.83;;;10.53;;
5662;SDS011;2854;42.692;23.364;2022-07-06T01:43:35;14.05;;;10.48;;
5662;SDS011;2854;42.692;23.364;2022-07-06T01:46:00;13.47;;;9.60;;
5662;SDS011;2854;42.692;23.364;2022-07-06T01:48:25;15.50;;;11.00;;
5662;SDS011;2854;42.692;23.364;2022-07-06T01:50:50;18.50;;;11.57;;
5662;SDS011;2854;42.692;23.364;2022-07-06T01:53:16;19.67;;;9.87;;
5662;SDS011;2854;42.692;23.364;2022-07-06T01:55:41;17.10;;;11.90;;
5662;SDS011;2854;42.692;23.364;2022-07-06T01:58:06;15.40;;;10.77;;
5662;SDS011;2854;42.692;23.364;2022-07-06T02:00:32;16.60;;;10.30;;
5662;SDS011;2854;42.692;23.364;2022-07-06T02:02:57;15.23;;;10.10;;
5662;SDS011;2854;42.692;23.364;2022-07-06T02:05:22;15.43;;;9.87;;
5662;SDS011;2854;42.692;23.364;2022-07-06T02:07:48;15.30;;;9.67;;
5662;SDS011;2854;42.692;23.364;2022-07-06T02:10:13;12.27;;;9.10;;
5662;SDS011;2854;42.692;23.364;2022-07-06T02:12:38;8.20;;;7.37;;
5662;SDS011;2854;42.692;23.364;2022-07-06T02:15:03;12.23;;;8.30;;
5662;SDS011;2854;42.692;23.364;2022-07-06T02:17:29;9.83;;;7.90;;
5662;SDS011;2854;42.692;23.364;2022-07-06T02:19:54;10.30;;;7.70;;
5662;SDS011;2854;42.692;23.364;2022-07-06T02:22:19;9.53;;;7.17;;
5662;SDS011;2854;42.692;23.364;2022-07-06T02:24:45;9.13;;;7.40;;
5662;SDS011;2854;42.692;23.364;2022-07-06T02:27:10;9.90;;;7.20;;
5662;SDS011;2854;42.692;23.364;2022-07-06T02:29:36;8.30;;;7.43;;
5662;SDS011;2854;42.692;23.364;2022-07-06T02:32:01;8.33;;;6.20;;
5662;SDS011;2854;42.692;23.364;2022-07-06T02:34:26;8.87;;;6.83;;
5662;SDS011;2854;42.692;23.364;2022-07-06T02:36:52;10.83;;;7.90;;
5662;SDS011;2854;42.692;23.364;2022-07-06T02:39:17;7.40;;;6.70;;
5662;SDS011;2854;42.692;23.364;2022-07-06T02:41:42;8.60;;;6.07;;
5662;SDS011;2854;42.692;23.364;2022-07-06T02:44:07;9.07;;;6.87;;
5662;SDS011;2854;42.692;23.364;2022-07-06T02:46:33;13.17;;;7.70;;
5662;SDS011;2854;42.692;23.364;2022-07-06T02:48:58;9.40;;;6.77;;
5662;SDS011;2854;42.692;23.364;2022-07-06T02:51:23;10.30;;;7.23;;
5662;SDS011;2854;42.692;23.364;2022-07-06T02:53:49;8.00;;;6.47;;
5662;SDS011;2854;42.692;23.364;2022-07-06T02:56:14;10.87;;;6.90;;
5662;SDS011;2854;42.692;23.364;2022-07-06T02:58:39;8.53;;;7.10;;
5662;SDS011;2854;42.692;23.364;2022-07-06T03:01:05;8.90;;;6.67;;
5662;SDS011;2854;42.692;23.364;2022-07-06T03:03:30;12.60;;;7.17;;
5662;SDS011;2854;42.692;23.364;2022-07-06T03:05:55;12.73;;;7.00;;
5662;SDS011;2854;42.692;23.364;2022-07-06T03:08:21;9.40;;;6.70;;
5662;SDS011;2854;42.692;23.364;2022-07-06T03:10:46;8.83;;;7.93;;
5662;SDS011;2854;42.692;23.364;2022-07-06T03:13:11;9.13;;;7.40;;
5662;SDS011;2854;42.692;23.364;2022-07-06T03:15:37;7.67;;;6.87;;
5662;SDS011;2854;42.692;23.364;2022-07-06T03:18:02;11.30;;;7.33;;
5662;SDS011;2854;42.692;23.364;2022-07-06T03:20:27;19.63;;;7.10;;
5662;SDS011;2854;42.692;23.364;2022-07-06T03:22:53;8.07;;;6.40;;
5662;SDS011;2854;42.692;23.364;2022-07-06T03:25:18;6.53;;;5.93;;
5662;SDS011;2854;42.692;23.364;2022-07-06T03:27:43;10.93;;;7.67;;
5662;SDS011;2854;42.692;23.364;2022-07-06T03:30:08;9.90;;;7.37;;
5662;SDS011;2854;42.692;23.364;2022-07-06T03:32:34;9.50;;;7.40;;
5662;SDS011;2854;42.692;23.364;2022-07-06T03:34:59;11.90;;;7.60;;
5662;SDS011;2854;42.692;23.364;2022-07-06T03:37:25;11.27;;;7.57;;
5662;SDS011;2854;42.692;23.364;2022-07-06T03:39:50;12.20;;;7.07;;
5662;SDS011;2854;42.692;23.364;2022-07-06T03:42:15;8.03;;;6.43;;
5662;SDS011;2854;42.692;23.364;2022-07-06T03:44:40;9.30;;;7.00;;
5662;SDS011;2854;42.692;23.364;2022-07-06T03:47:06;9.20;;;6.90;;
5662;SDS011;2854;42.692;23.364;2022-07-06T03:49:31;10.17;;;7.93;;
5662;SDS011;2854;42.692;23.364;2022-07-06T03:51:56;10.83;;;6.70;;
5662;SDS011;2854;42.692;23.364;2022-07-06T03:54:22;13.80;;;6.50;;
5662;SDS011;2854;42.692;23.364;2022-07-06T03:56:47;10.00;;;7.40;;
5662;SDS011;2854;42.692;23.364;2022-07-06T03:59:12;8.53;;;7.17;;
5662;SDS011;2854;42.692;23.364;2022-07-06T04:01:39;9.57;;;6.80;;
5662;SDS011;2854;42.692;23.364;2022-07-06T04:04:05;7.47;;;6.30;;
5662;SDS011;2854;42.692;23.364;2022-07-06T04:06:30;10.90;;;7.20;;
5662;SDS011;2854;42.692;23.364;2022-07-06T04:08:56;9.40;;;6.67;;
5662;SDS011;2854;42.692;23.364;2022-07-06T04:11:21;11.80;;;6.83;;
5662;SDS011;2854;42.692;23.364;2022-07-06T04:13:46;5.80;;;5.20;;
5662;SDS011;2854;42.692;23.364;2022-07-06T04:16:12;6.70;;;5.50;;
5662;SDS011;2854;42.692;23.364;2022-07-06T04:18:37;6.40;;;5.70;;
5662;SDS011;2854;42.692;23.364;2022-07-06T04:21:02;6.70;;;6.00;;
5662;SDS011;2854;42.692;23.364;2022-07-06T04:23:28;6.13;;;5.53;;
5662;SDS011;2854;42.692;23.364;2022-07-06T04:25:53;8.70;;;6.20;;
5662;SDS011;2854;42.692;23.364;2022-07-06T04:28:19;6.70;;;6.00;;
5662;SDS011;2854;42.692;23.364;2022-07-06T04:30:44;10.23;;;6.10;;
5662;SDS011;2854;42.692;23.364;2022-07-06T04:33:09;9.00;;;5.50;;
5662;SDS011;2854;42.692;23.364;2022-07-06T04:35:35;7.53;;;6.40;;
5662;SDS011;2854;42.692;23.364;2022-07-06T04:38:00;9.03;;;6.00;;
5662;SDS011;2854;42.692;23.364;2022-07-06T04:40:25;8.30;;;6.03;;
5662;SDS011;2854;42.692;23.364;2022-07-06T04:42:50;12.07;;;6.63;;
5662;SDS011;2854;42.692;23.364;2022-07-06T04:45:16;11.10;;;5.80;;
5662;SDS011;2854;42.692;23.364;2022-07-06T04:47:41;5.77;;;5.03;;
5662;SDS011;2854;42.692;23.364;2022-07-06T04:50:08;12.40;;;5.93;;
5662;SDS011;2854;42.692;23.364;2022-07-06T04:52:34;9.77;;;6.90;;
5662;SDS011;2854;42.692;23.364;2022-07-06T04:54:59;10.17;;;6.63;;
5662;SDS011;2854;42.692;23.364;2022-07-06T04:57:25;7.20;;;6.00;;
5662;SDS011;2854;42.692;23.364;2022-07-06T04:59:51;7.90;;;6.57;;
5662;SDS011;2854;42.692;23.364;2022-07-06T05:02:16;13.53;;;7.33;;
5662;SDS011;2854;42.692;23.364;2022-07-06T05:04:42;11.83;;;6.80;;
5662;SDS011;2854;42.692;23.364;2022-07-06T05:07:07;12.23;;;6.73;;
5662;SDS011;2854;42.692;23.364;2022-07-06T05:09:32;14.10;;;7.03;;
5662;SDS011;2854;42.692;23.364;2022-07-06T05:11:58;13.50;;;7.10;;
5662;SDS011;2854;42.692;23.364;2022-07-06T05:14:23;10.30;;;7.47;;
5662;SDS011;2854;42.692;23.364;2022-07-06T05:16:48;9.50;;;7.33;;
5662;SDS011;2854;42.692;23.364;2022-07-06T05:19:14;10.27;;;7.47;;
5662;SDS011;2854;42.692;23.364;2022-07-06T05:21:39;13.00;;;8.13;;
5662;SDS011;2854;42.692;23.364;2022-07-06T05:24:04;17.80;;;7.97;;
5662;SDS011;2854;42.692;23.364;2022-07-06T05:26:30;12.10;;;7.53;;
5662;SDS011;2854;42.692;23.364;2022-07-06T05:28:55;11.40;;;8.13;;
5662;SDS011;2854;42.692;23.364;2022-07-06T05:31:20;13.43;;;7.97;;
5662;SDS011;2854;42.692;23.364;2022-07-06T05:33:46;12.90;;;8.70;;
5662;SDS011;2854;42.692;23.364;2022-07-06T05:36:11;13.57;;;8.10;;
5662;SDS011;2854;42.692;23.364;2022-07-06T05:38:36;11.17;;;7.80;;
5662;SDS011;2854;42.692;23.364;2022-07-06T05:41:01;12.83;;;7.93;;
5662;SDS011;2854;42.692;23.364;2022-07-06T05:43:27;10.70;;;8.07;;
5662;SDS011;2854;42.692;23.364;2022-07-06T05:45:52;11.40;;;8.73;;
5662;SDS011;2854;42.692;23.364;2022-07-06T05:48:18;11.23;;;8.60;;
5662;SDS011;2854;42.692;23.364;2022-07-06T05:51:02;10.57;;;7.07;;
5662;SDS011;2854;42.692;23.364;2022-07-06T05:53:28;9.03;;;7.77;;
5662;SDS011;2854;42.692;23.364;2022-07-06T05:55:53;12.00;;;7.40;;
5662;SDS011;2854;42.692;23.364;2022-07-06T05:58:18;11.27;;;8.00;;
5662;SDS011;2854;42.692;23.364;2022-07-06T06:00:44;11.13;;;8.23;;
5662;SDS011;2854;42.692;23.364;2022-07-06T06:03:10;11.73;;;7.73;;
5662;SDS011;2854;42.692;23.364;2022-07-06T06:05:35;11.23;;;8.50;;
5662;SDS011;2854;42.692;23.364;2022-07-06T06:08:01;9.80;;;7.10;;
5662;SDS011;2854;42.692;23.364;2022-07-06T06:10:26;13.50;;;8.10;;
5662;SDS011;2854;42.692;23.364;2022-07-06T06:12:51;12.40;;;7.20;;
5662;SDS011;2854;42.692;23.364;2022-07-06T06:15:17;10.10;;;7.60;;
5662;SDS011;2854;42.692;23.364;2022-07-06T06:17:42;10.83;;;7.17;;
5662;SDS011;2854;42.692;23.364;2022-07-06T06:20:09;9.63;;;7.57;;
5662;SDS011;2854;42.692;23.364;2022-07-06T06:22:44;11.80;;;7.87;;
5662;SDS011;2854;42.692;23.364;2022-07-06T06:25:10;13.63;;;7.20;;
5662;SDS011;2854;42.692;23.364;2022-07-06T06:27:36;11.30;;;7.57;;
5662;SDS011;2854;42.692;23.364;2022-07-06T06:30:01;12.20;;;7.60;;
5662;SDS011;2854;42.692;23.364;2022-07-06T06:32:26;8.20;;;6.47;;
5662;SDS011;2854;42.692;23.364;2022-07-06T06:34:52;13.63;;;7.07;;
5662;SDS011;2854;42.692;23.364;2022-07-06T06:37:17;8.20;;;7.00;;
5662;SDS011;2854;42.692;23.364;2022-07-06T06:39:43;13.90;;;7.70;;
5662;SDS011;2854;42.692;23.364;2022-07-06T06:42:08;11.70;;;7.50;;
5662;SDS011;2854;42.692;23.364;2022-07-06T06:44:34;10.10;;;7.70;;
5662;SDS011;2854;42.692;23.364;2022-07-06T06:46:59;11.87;;;7.63;;
5662;SDS011;2854;42.692;23.364;2022-07-06T06:49:25;11.40;;;7.77;;
5662;SDS011;2854;42.692;23.364;2022-07-06T06:51:50;9.70;;;7.57;;
5662;SDS011;2854;42.692;23.364;2022-07-06T06:54:15;11.13;;;7.30;;
5662;SDS011;2854;42.692;23.364;2022-07-06T06:56:41;9.50;;;7.10;;
5662;SDS011;2854;42.692;23.364;2022-07-06T06:59:06;13.23;;;7.27;;
5662;SDS011;2854;42.692;23.364;2022-07-06T07:01:31;9.83;;;7.10;;
5662;SDS011;2854;42.692;23.364;2022-07-06T07:03:57;11.70;;;7.53;;
5662;SDS011;2854;42.692;23.364;2022-07-06T07:06:23;7.90;;;7.10;;
5662;SDS011;2854;42.692;23.364;2022-07-06T07:08:48;9.53;;;7.53;;
5662;SDS011;2854;42.692;23.364;2022-07-06T07:11:19;11.23;;;7.90;;
5662;SDS011;2854;42.692;23.364;2022-07-06T07:13:44;9.73;;;7.53;;
5662;SDS011;2854;42.692;23.364;2022-07-06T07:16:10;10.23;;;7.43;;
5662;SDS011;2854;42.692;23.364;2022-07-06T07:18:35;11.33;;;7.60;;
5662;SDS011;2854;42.692;23.364;2022-07-06T07:21:00;10.40;;;8.00;;
5662;SDS011;2854;42.692;23.364;2022-07-06T07:23:26;10.47;;;7.23;;
5662;SDS011;2854;42.692;23.364;2022-07-06T07:25:51;11.13;;;8.27;;
5662;SDS011;2854;42.692;23.364;2022-07-06T07:28:16;10.90;;;7.83;;
5662;SDS011;2854;42.692;23.364;2022-07-06T07:30:42;9.90;;;7.13;;
5662;SDS011;2854;42.692;23.364;2022-07-06T07:33:07;13.93;;;9.00;;
5662;SDS011;2854;42.692;23.364;2022-07-06T07:35:32;15.17;;;8.50;;
5662;SDS011;2854;42.692;23.364;2022-07-06T07:37:58;17.57;;;9.30;;
5662;SDS011;2854;42.692;23.364;2022-07-06T07:40:23;12.17;;;7.73;;
5662;SDS011;2854;42.692;23.364;2022-07-06T07:42:48;11.70;;;9.00;;
5662;SDS011;2854;42.692;23.364;2022-07-06T07:45:14;9.00;;;7.50;;
5662;SDS011;2854;42.692;23.364;2022-07-06T07:47:39;9.37;;;7.40;;
5662;SDS011;2854;42.692;23.364;2022-07-06T07:50:05;9.10;;;7.40;;
5662;SDS011;2854;42.692;23.364;2022-07-06T07:52:31;11.40;;;8.27;;
5662;SDS011;2854;42.692;23.364;2022-07-06T07:54:56;10.17;;;7.80;;
5662;SDS011;2854;42.692;23.364;2022-07-06T07:57:21;8.90;;;8.00;;
5662;SDS011;2854;42.692;23.364;2022-07-06T07:59:47;10.83;;;7.87;;
5662;SDS011;2854;42.692;23.364;2022-07-06T08:02:12;10.20;;;8.03;;
5662;SDS011;2854;42.692;23.364;2022-07-06T08:04:37;8.07;;;7.27;;
5662;SDS011;2854;42.692;23.364;2022-07-06T08:07:03;12.43;;;8.10;;
5662;SDS011;2854;42.692;23.364;2022-07-06T08:09:28;9.30;;;7.57;;
5662;SDS011;2854;42.692;23.364;2022-07-06T08:11:53;9.40;;;7.27;;
5662;SDS011;2854;42.692;23.364;2022-07-06T08:14:19;10.60;;;8.13;;
5662;SDS011;2854;42.692;23.364;2022-07-06T08:16:45;8.47;;;7.57;;
5662;SDS011;2854;42.692;23.364;2022-07-06T08:19:10;15.30;;;7.60;;
5662;SDS011;2854;42.692;23.364;2022-07-06T08:21:40;12.73;;;7.23;;
5662;SDS011;2854;42.692;23.364;2022-07-06T08:24:05;10.03;;;7.47;;
5662;SDS011;2854;42.692;23.364;2022-07-06T08:26:30;10.63;;;7.83;;
5662;SDS011;2854;42.692;23.364;2022-07-06T08:28:56;8.07;;;7.27;;
5662;SDS011;2854;42.692;23.364;2022-07-06T08:31:21;7.70;;;6.90;;
5662;SDS011;2854;42.692;23.364;2022-07-06T08:33:46;8.40;;;6.83;;
5662;SDS011;2854;42.692;23.364;2022-07-06T08:36:13;11.60;;;7.70;;
5662;SDS011;2854;42.692;23.364;2022-07-06T08:38:38;11.77;;;7.10;;
5662;SDS011;2854;42.692;23.364;2022-07-06T08:41:03;8.13;;;6.50;;
5662;SDS011;2854;42.692;23.364;2022-07-06T08:43:31;8.80;;;7.07;;
5662;SDS011;2854;42.692;23.364;2022-07-06T08:45:56;9.60;;;7.60;;
5662;SDS011;2854;42.692;23.364;2022-07-06T08:48:23;9.67;;;7.40;;
5662;SDS011;2854;42.692;23.364;2022-07-06T08:50:49;10.47;;;7.90;;
5662;SDS011;2854;42.692;23.364;2022-07-06T08:53:15;8.30;;;7.17;;
5662;SDS011;2854;42.692;23.364;2022-07-06T08:55:41;8.00;;;7.07;;
5662;SDS011;2854;42.692;23.364;2022-07-06T08:58:08;12.80;;;7.40;;
5662;SDS011;2854;42.692;23.364;2022-07-06T09:00:42;8.50;;;7.20;;
5662;SDS011;2854;42.692;23.364;2022-07-06T09:03:11;7.30;;;6.60;;
5662;SDS011;2854;42.692;23.364;2022-07-06T09:05:37;7.40;;;6.47;;
5662;SDS011;2854;42.692;23.364;2022-07-06T09:08:04;7.57;;;6.87;;
5662;SDS011;2854;42.692;23.364;2022-07-06T09:10:30;12.00;;;7.40;;
5662;SDS011;2854;42.692;23.364;2022-07-06T09:13:02;7.77;;;6.90;;
5662;SDS011;2854;42.692;23.364;2022-07-06T09:15:28;10.93;;;7.90;;
5662;SDS011;2854;42.692;23.364;2022-07-06T09:17:55;7.40;;;6.60;;
5662;SDS011;2854;42.692;23.364;2022-07-06T09:20:20;14.80;;;6.87;;
5662;SDS011;2854;42.692;23.364;2022-07-06T09:22:45;11.53;;;7.60;;
5662;SDS011;2854;42.692;23.364;2022-07-06T09:25:12;13.90;;;9.17;;
5662;SDS011;2854;42.692;23.364;2022-07-06T09:27:38;11.00;;;7.40;;
5662;SDS011;2854;42.692;23.364;2022-07-06T09:30:04;9.07;;;7.70;;
5662;SDS011;2854;42.692;23.364;2022-07-06T09:32:30;15.57;;;8.03;;
5662;SDS011;2854;42.692;23.364;2022-07-06T09:34:55;8.87;;;7.90;;
5662;SDS011;2854;42.692;23.364;2022-07-06T09:37:21;7.77;;;7.07;;
5662;SDS011;2854;42.692;23.364;2022-07-06T09:39:46;10.57;;;7.80;;
5662;SDS011;2854;42.692;23.364;2022-07-06T09:42:12;8.77;;;6.77;;
5662;SDS011;2854;42.692;23.364;2022-07-06T09:44:38;8.23;;;7.23;;
5662;SDS011;2854;42.692;23.364;2022-07-06T09:47:07;10.00;;;7.23;;
5662;SDS011;2854;42.692;23.364;2022-07-06T09:49:33;15.03;;;7.40;;
5662;SDS011;2854;42.692;23.364;2022-07-06T09:52:00;9.73;;;8.73;;
5662;SDS011;2854;42.692;23.364;2022-07-06T09:54:25;11.90;;;8.73;;
5662;SDS011;2854;42.692;23.364;2022-07-06T09:56:51;11.40;;;9.03;;
5662;SDS011;2854;42.692;23.364;2022-07-06T09:59:24;11.47;;;9.07;;
5662;SDS011;2854;42.692;23.364;2022-07-06T10:01:53;12.63;;;9.33;;
5662;SDS011;2854;42.692;23.364;2022-07-06T10:04:20;13.23;;;9.83;;
5662;SDS011;2854;42.692;23.364;2022-07-06T10:06:45;10.60;;;8.50;;
5662;SDS011;2854;42.692;23.364;2022-07-06T10:09:13;9.77;;;8.23;;
5662;SDS011;2854;42.692;23.364;2022-07-06T10:11:49;11.60;;;9.13;;
5662;SDS011;2854;42.692;23.364;2022-07-06T10:14:17;9.20;;;8.03;;
5662;SDS011;2854;42.692;23.364;2022-07-06T10:16:43;8.73;;;7.83;;
5662;SDS011;2854;42.692;23.364;2022-07-06T10:19:10;9.17;;;8.20;;
5662;SDS011;2854;42.692;23.364;2022-07-06T10:21:36;9.10;;;7.80;;
5662;SDS011;2854;42.692;23.364;2022-07-06T10:24:02;8.17;;;7.37;;
5662;SDS011;2854;42.692;23.364;2022-07-06T10:26:28;12.03;;;9.13;;
5662;SDS011;2854;42.692;23.364;2022-07-06T10:28:54;9.60;;;8.33;;
5662;SDS011;2854;42.692;23.364;2022-07-06T10:31:19;9.17;;;8.07;;
5662;SDS011;2854;42.692;23.364;2022-07-06T10:33:45;15.30;;;8.30;;
5662;SDS011;2854;42.692;23.364;2022-07-06T10:36:11;9.93;;;8.83;;
5662;SDS011;2854;42.692;23.364;2022-07-06T10:38:37;10.67;;;7.63;;
5662;SDS011;2854;42.692;23.364;2022-07-06T10:41:02;9.83;;;8.77;;
5662;SDS011;2854;42.692;23.364;2022-07-06T10:43:46;9.83;;;7.90;;
5662;SDS011;2854;42.692;23.364;2022-07-06T10:46:15;8.80;;;7.67;;
5662;SDS011;2854;42.692;23.364;2022-07-06T10:48:45;7.27;;;6.50;;
5662;SDS011;2854;42.692;23.364;2022-07-06T10:51:11;7.50;;;6.80;;
5662;SDS011;2854;42.692;23.364;2022-07-06T10:53:37;8.37;;;6.80;;
5662;SDS011;2854;42.692;23.364;2022-07-06T10:56:05;8.93;;;8.03;;
5662;SDS011;2854;42.692;23.364;2022-07-06T11:01:02;8.20;;;7.37;;
5662;SDS011;2854;42.692;23.364;2022-07-06T11:06:00;8.90;;;7.83;;
5662;SDS011;2854;42.692;23.364;2022-07-06T11:08:59;12.80;;;9.67;;
5662;SDS011;2854;42.692;23.364;2022-07-06T11:11:59;11.00;;;8.77;;
5662;SDS011;2854;42.692;23.364;2022-07-06T11:14:13;10.13;;;9.07;;
5662;SDS011;2854;42.692;23.364;2022-07-06T11:19:08;14.10;;;9.53;;
5662;SDS011;2854;42.692;23.364;2022-07-06T11:21:38;9.33;;;8.30;;
5662;SDS011;2854;42.692;23.364;2022-07-06T11:24:08;12.23;;;8.83;;
5662;SDS011;2854;42.692;23.364;2022-07-06T11:26:34;9.60;;;8.70;;
5662;SDS011;2854;42.692;23.364;2022-07-06T11:29:02;9.83;;;8.80;;
5662;SDS011;2854;42.692;23.364;2022-07-06T11:31:28;11.30;;;9.90;;
5662;SDS011;2854;42.692;23.364;2022-07-06T11:33:53;9.97;;;8.97;;
5662;SDS011;2854;42.692;23.364;2022-07-06T11:36:20;10.53;;;8.80;;
5662;SDS011;2854;42.692;23.364;2022-07-06T11:38:46;10.97;;;9.10;;
5662;SDS011;2854;42.692;23.364;2022-07-06T11:41:12;9.77;;;7.83;;
5662;SDS011;2854;42.692;23.364;2022-07-06T11:43:39;9.10;;;8.20;;
5662;SDS011;2854;42.692;23.364;2022-07-06T11:46:16;10.00;;;8.63;;
5662;SDS011;2854;42.692;23.364;2022-07-06T11:48:46;11.53;;;8.67;;
5662;SDS011;2854;42.692;23.364;2022-07-06T11:51:11;9.13;;;8.10;;
5662;SDS011;2854;42.692;23.364;2022-07-06T11:53:41;10.50;;;8.60;;
5662;SDS011;2854;42.692;23.364;2022-07-06T11:56:07;8.97;;;8.07;;
5662;SDS011;2854;42.692;23.364;2022-07-06T11:58:33;10.07;;;8.83;;
5662;SDS011;2854;42.692;23.364;2022-07-06T12:01:03;12.70;;;9.00;;
5662;SDS011;2854;42.692;23.364;2022-07-06T12:03:28;10.60;;;8.50;;
5662;SDS011;2854;42.692;23.364;2022-07-06T12:05:54;7.57;;;6.87;;
5662;SDS011;2854;42.692;23.364;2022-07-06T12:08:19;8.87;;;7.97;;
5662;SDS011;2854;42.692;23.364;2022-07-06T12:10:45;9.13;;;8.23;;
5662;SDS011;2854;42.692;23.364;2022-07-06T12:13:10;9.67;;;8.17;;
5662;SDS011;2854;42.692;23.364;2022-07-06T12:15:35;9.80;;;8.80;;
5662;SDS011;2854;42.692;23.364;2022-07-06T12:18:00;9.70;;;8.70;;
5662;SDS011;2854;42.692;23.364;2022-07-06T12:20:26;8.80;;;7.90;;
5662;SDS011;2854;42.692;23.364;2022-07-06T12:23:00;10.20;;;9.20;;
5662;SDS011;2854;42.692;23.364;2022-07-06T12:25:30;14.83;;;7.80;;
5662;SDS011;2854;42.692;23.364;2022-07-06T12:27:55;10.07;;;8.70;;
5662;SDS011;2854;42.692;23.364;2022-07-06T12:30:20;13.30;;;8.67;;
5662;SDS011;2854;42.692;23.364;2022-07-06T12:32:46;9.27;;;8.27;;
5662;SDS011;2854;42.692;23.364;2022-07-06T12:35:11;10.17;;;8.10;;
5662;SDS011;2854;42.692;23.364;2022-07-06T12:37:36;9.60;;;8.60;;
5662;SDS011;2854;42.692;23.364;2022-07-06T12:40:02;16.33;;;8.63;;
5662;SDS011;2854;42.692;23.364;2022-07-06T12:42:42;11.17;;;7.40;;
5662;SDS011;2854;42.692;23.364;2022-07-06T12:45:10;8.83;;;7.93;;
5662;SDS011;2854;42.692;23.364;2022-07-06T12:47:35;9.30;;;7.57;;
5662;SDS011;2854;42.692;23.364;2022-07-06T12:52:30;8.43;;;7.57;;
5662;SDS011;2854;42.692;23.364;2022-07-06T12:54:59;7.97;;;7.23;;
5662;SDS011;2854;42.692;23.364;2022-07-06T12:57:24;10.57;;;6.50;;
5662;SDS011;2854;42.692;23.364;2022-07-06T13:02:22;7.03;;;6.33;;
5662;SDS011;2854;42.692;23.364;2022-07-06T13:05:00;7.70;;;6.80;;
5662;SDS011;2854;42.692;23.364;2022-07-06T13:07:27;8.13;;;7.23;;
5662;SDS011;2854;42.692;23.364;2022-07-06T13:09:53;6.93;;;6.33;;
5662;SDS011;2854;42.692;23.364;2022-07-06T13:12:19;6.53;;;5.90;;
5662;SDS011;2854;42.692;23.364;2022-07-06T13:14:44;6.87;;;5.90;;
5662;SDS011;2854;42.692;23.364;2022-07-06T13:17:09;5.90;;;5.40;;
5662;SDS011;2854;42.692;23.364;2022-07-06T13:19:34;7.67;;;5.30;;
5662;SDS011;2854;42.692;23.364;2022-07-06T13:22:00;6.13;;;5.63;;
5662;SDS011;2854;42.692;23.364;2022-07-06T13:24:25;6.33;;;5.83;;
5662;SDS011;2854;42.692;23.364;2022-07-06T13:26:53;5.23;;;4.83;;
5662;SDS011;2854;42.692;23.364;2022-07-06T13:29:18;5.63;;;5.13;;
5662;SDS011;2854;42.692;23.364;2022-07-06T13:31:43;6.40;;;5.80;;
5662;SDS011;2854;42.692;23.364;2022-07-06T13:34:09;4.97;;;4.57;;
5662;SDS011;2854;42.692;23.364;2022-07-06T13:36:34;4.30;;;4.00;;
5662;SDS011;2854;42.692;23.364;2022-07-06T13:38:59;5.60;;;4.43;;
5662;SDS011;2854;42.692;23.364;2022-07-06T13:41:25;5.17;;;4.80;;
5662;SDS011;2854;42.692;23.364;2022-07-06T13:43:50;3.93;;;3.40;;
5662;SDS011;2854;42.692;23.364;2022-07-06T13:46:15;3.43;;;3.23;;
5662;SDS011;2854;42.692;23.364;2022-07-06T13:48:41;3.70;;;3.40;;
5662;SDS011;2854;42.692;23.364;2022-07-06T13:51:07;5.00;;;3.73;;
5662;SDS011;2854;42.692;23.364;2022-07-06T13:53:32;2.97;;;2.77;;
5662;SDS011;2854;42.692;23.364;2022-07-06T13:55:58;3.80;;;3.50;;
5662;SDS011;2854;42.692;23.364;2022-07-06T13:58:23;3.30;;;3.10;;
5662;SDS011;2854;42.692;23.364;2022-07-06T14:00:48;3.13;;;2.83;;
5662;SDS011;2854;42.692;23.364;2022-07-06T14:03:14;3.00;;;2.87;;
5662;SDS011;2854;42.692;23.364;2022-07-06T14:05:39;3.30;;;3.10;;
5662;SDS011;2854;42.692;23.364;2022-07-06T14:08:04;3.07;;;2.87;;
5662;SDS011;2854;42.692;23.364;2022-07-06T14:10:30;3.10;;;3.00;;
5662;SDS011;2854;42.692;23.364;2022-07-06T14:12:55;2.80;;;2.60;;
5662;SDS011;2854;42.692;23.364;2022-07-06T14:15:20;2.70;;;2.60;;
5662;SDS011;2854;42.692;23.364;2022-07-06T14:17:46;2.80;;;2.60;;
5662;SDS011;2854;42.692;23.364;2022-07-06T14:20:12;3.43;;;3.17;;
5662;SDS011;2854;42.692;23.364;2022-07-06T14:22:38;2.80;;;2.60;;
5662;SDS011;2854;42.692;23.364;2022-07-06T14:25:03;2.83;;;2.63;;
5662;SDS011;2854;42.692;23.364;2022-07-06T14:27:30;2.53;;;2.43;;
5662;SDS011;2854;42.692;23.364;2022-07-06T14:29:55;3.30;;;2.70;;
5662;SDS011;2854;42.692;23.364;2022-07-06T14:32:21;2.30;;;2.03;;
5662;SDS011;2854;42.692;23.364;2022-07-06T14:34:46;2.90;;;2.60;;
5662;SDS011;2854;42.692;23.364;2022-07-06T14:37:11;2.30;;;2.20;;
5662;SDS011;2854;42.692;23.364;2022-07-06T14:39:36;2.50;;;2.30;;
5662;SDS011;2854;42.692;23.364;2022-07-06T14:42:02;2.33;;;2.23;;
5662;SDS011;2854;42.692;23.364;2022-07-06T14:44:27;14.53;;;2.70;;
5662;SDS011;2854;42.692;23.364;2022-07-06T14:46:52;2.70;;;2.50;;
5662;SDS011;2854;42.692;23.364;2022-07-06T14:49:18;2.43;;;2.33;;
5662;SDS011;2854;42.692;23.364;2022-07-06T14:51:43;2.13;;;2.03;;
5662;SDS011;2854;42.692;23.364;2022-07-06T14:54:08;3.07;;;2.87;;
5662;SDS011;2854;42.692;23.364;2022-07-06T14:56:34;2.70;;;2.50;;
5662;SDS011;2854;42.692;23.364;2022-07-06T14:58:59;3.30;;;3.00;;
5662;SDS011;2854;42.692;23.364;2022-07-06T15:01:25;3.63;;;2.60;;
5662;SDS011;2854;42.692;23.364;2022-07-06T15:03:50;9.83;;;2.47;;